sensor_id;sensor_type;location;lat;lon;timestamp;temperature;humidity
52799;DHT22;38667;42.872;74.622;2024-03-29T00:01:10;9.10;70.70
52799;DHT22;38667;42.872;74.622;2024-03-29T00:03:36;9.00;70.00
52799;DHT22;38667;42.872;74.622;2024-03-29T00:06:03;9.10;70.80
52799;DHT22;38667;42.872;74.622;2024-03-29T00:08:29;9.10;70.30
52799;DHT22;38667;42.872;74.622;2024-03-29T00:10:55;9.10;69.90
52799;DHT22;38667;42.872;74.622;2024-03-29T00:13:22;9.00;69.00
52799;DHT22;38667;42.872;74.622;2024-03-29T00:15:48;9.10;69.20
52799;DHT22;38667;42.872;74.622;2024-03-29T00:18:16;9.10;69.10
52799;DHT22;38667;42.872;74.622;2024-03-29T00:20:42;9.00;69.40
52799;DHT22;38667;42.872;74.622;2024-03-29T00:23:09;9.00;69.10
52799;DHT22;38667;42.872;74.622;2024-03-29T00:25:35;8.90;69.10
52799;DHT22;38667;42.872;74.622;2024-03-29T00:28:02;9.00;69.10
52799;DHT22;38667;42.872;74.622;2024-03-29T00:30:30;8.90;68.50
52799;DHT22;38667;42.872;74.622;2024-03-29T00:32:57;8.90;69.20
52799;DHT22;38667;42.872;74.622;2024-03-29T00:35:25;8.90;69.30
52799;DHT22;38667;42.872;74.622;2024-03-29T00:37:51;8.90;69.30
52799;DHT22;38667;42.872;74.622;2024-03-29T00:40:19;8.90;69.20
52799;DHT22;38667;42.872;74.622;2024-03-29T00:42:45;8.90;69.80
52799;DHT22;38667;42.872;74.622;2024-03-29T00:45:12;8.90;69.30
52799;DHT22;38667;42.872;74.622;2024-03-29T00:47:38;8.80;69.80
52799;DHT22;38667;42.872;74.622;2024-03-29T00:50:07;8.90;70.30
52799;DHT22;38667;42.872;74.622;2024-03-29T00:52:36;8.90;70.00
52799;DHT22;38667;42.872;74.622;2024-03-29T00:55:02;8.90;69.40
52799;DHT22;38667;42.872;74.622;2024-03-29T00:57:29;8.90;68.90
52799;DHT22;38667;42.872;74.622;2024-03-29T00:59:57;8.90;68.40
52799;DHT22;38667;42.872;74.622;2024-03-29T01:02:23;8.90;68.70
52799;DHT22;38667;42.872;74.622;2024-03-29T01:04:49;8.90;68.90
52799;DHT22;38667;42.872;74.622;2024-03-29T01:07:16;8.90;68.10
52799;DHT22;38667;42.872;74.622;2024-03-29T01:09:44;8.90;68.70
52799;DHT22;38667;42.872;74.622;2024-03-29T01:12:10;8.90;69.20
52799;DHT22;38667;42.872;74.622;2024-03-29T01:14:37;8.90;69.30
52799;DHT22;38667;42.872;74.622;2024-03-29T01:17:03;8.90;69.50
52799;DHT22;38667;42.872;74.622;2024-03-29T01:19:30;8.90;69.00
52799;DHT22;38667;42.872;74.622;2024-03-29T01:21:59;9.00;68.60
52799;DHT22;38667;42.872;74.622;2024-03-29T01:24:28;9.10;69.00
52799;DHT22;38667;42.872;74.622;2024-03-29T01:26:56;9.00;68.50
52799;DHT22;38667;42.872;74.622;2024-03-29T01:29:23;9.00;68.80
52799;DHT22;38667;42.872;74.622;2024-03-29T01:31:49;9.00;69.40
52799;DHT22;38667;42.872;74.622;2024-03-29T01:34:15;8.90;70.10
52799;DHT22;38667;42.872;74.622;2024-03-29T01:36:42;9.00;70.00
52799;DHT22;38667;42.872;74.622;2024-03-29T01:39:11;9.00;70.80
52799;DHT22;38667;42.872;74.622;2024-03-29T01:41:37;9.10;70.80
52799;DHT22;38667;42.872;74.622;2024-03-29T01:44:06;9.00;70.70
52799;DHT22;38667;42.872;74.622;2024-03-29T01:46:35;9.10;71.90
52799;DHT22;38667;42.872;74.622;2024-03-29T01:49:02;9.10;72.80
52799;DHT22;38667;42.872;74.622;2024-03-29T01:51:32;9.10;72.10
52799;DHT22;38667;42.872;74.622;2024-03-29T01:54:01;9.10;72.10
52799;DHT22;38667;42.872;74.622;2024-03-29T01:56:27;9.10;73.00
52799;DHT22;38667;42.872;74.622;2024-03-29T01:58:55;9.10;73.60
52799;DHT22;38667;42.872;74.622;2024-03-29T02:01:25;9.10;73.60
52799;DHT22;38667;42.872;74.622;2024-03-29T02:03:52;9.10;73.40
52799;DHT22;38667;42.872;74.622;2024-03-29T02:06:19;9.10;73.10
52799;DHT22;38667;42.872;74.622;2024-03-29T02:08:45;9.20;72.80
52799;DHT22;38667;42.872;74.622;2024-03-29T02:11:13;9.20;74.00
52799;DHT22;38667;42.872;74.622;2024-03-29T02:13:39;9.30;75.10
52799;DHT22;38667;42.872;74.622;2024-03-29T02:16:05;9.30;74.50
52799;DHT22;38667;42.872;74.622;2024-03-29T02:18:34;9.40;75.40
52799;DHT22;38667;42.872;74.622;2024-03-29T02:21:01;9.40;74.80
52799;DHT22;38667;42.872;74.622;2024-03-29T02:23:27;9.50;75.50
52799;DHT22;38667;42.872;74.622;2024-03-29T02:25:57;9.50;75.10
52799;DHT22;38667;42.872;74.622;2024-03-29T02:28:23;9.50;75.50
52799;DHT22;38667;42.872;74.622;2024-03-29T02:30:50;9.60;75.60
52799;DHT22;38667;42.872;74.622;2024-03-29T02:33:17;9.60;74.90
52799;DHT22;38667;42.872;74.622;2024-03-29T02:35:43;9.60;74.80
52799;DHT22;38667;42.872;74.622;2024-03-29T02:38:10;9.70;74.60
52799;DHT22;38667;42.872;74.622;2024-03-29T02:40:36;9.70;74.30
52799;DHT22;38667;42.872;74.622;2024-03-29T02:43:04;9.70;74.10
52799;DHT22;38667;42.872;74.622;2024-03-29T02:45:31;9.80;74.90
52799;DHT22;38667;42.872;74.622;2024-03-29T02:47:57;9.80;74.40
52799;DHT22;38667;42.872;74.622;2024-03-29T02:50:23;9.90;74.40
52799;DHT22;38667;42.872;74.622;2024-03-29T02:52:50;9.90;73.90
52799;DHT22;38667;42.872;74.622;2024-03-29T02:55:16;9.90;71.80
52799;DHT22;38667;42.872;74.622;2024-03-29T02:57:43;9.90;73.00
52799;DHT22;38667;42.872;74.622;2024-03-29T03:00:13;9.90;69.70
52799;DHT22;38667;42.872;74.622;2024-03-29T03:02:40;9.80;69.50
52799;DHT22;38667;42.872;74.622;2024-03-29T03:05:07;9.90;69.80
52799;DHT22;38667;42.872;74.622;2024-03-29T03:07:34;9.90;69.60
52799;DHT22;38667;42.872;74.622;2024-03-29T03:10:01;9.90;69.50
52799;DHT22;38667;42.872;74.622;2024-03-29T03:12:29;9.90;70.40
52799;DHT22;38667;42.872;74.622;2024-03-29T03:14:55;10.00;71.10
52799;DHT22;38667;42.872;74.622;2024-03-29T03:17:24;10.00;69.40
52799;DHT22;38667;42.872;74.622;2024-03-29T03:19:52;10.00;68.70
52799;DHT22;38667;42.872;74.622;2024-03-29T03:22:18;10.10;70.10
52799;DHT22;38667;42.872;74.622;2024-03-29T03:24:45;10.20;68.30
52799;DHT22;38667;42.872;74.622;2024-03-29T03:27:11;10.20;69.50
52799;DHT22;38667;42.872;74.622;2024-03-29T03:29:38;10.30;68.40
52799;DHT22;38667;42.872;74.622;2024-03-29T03:32:06;10.20;67.00
52799;DHT22;38667;42.872;74.622;2024-03-29T03:34:34;10.20;65.90
52799;DHT22;38667;42.872;74.622;2024-03-29T03:37:00;10.20;66.60
52799;DHT22;38667;42.872;74.622;2024-03-29T03:39:27;10.30;67.00
52799;DHT22;38667;42.872;74.622;2024-03-29T03:41:53;10.30;67.40
52799;DHT22;38667;42.872;74.622;2024-03-29T03:44:19;10.40;66.80
52799;DHT22;38667;42.872;74.622;2024-03-29T03:46:46;10.40;67.10
52799;DHT22;38667;42.872;74.622;2024-03-29T03:49:12;10.40;66.70
52799;DHT22;38667;42.872;74.622;2024-03-29T03:51:40;10.50;66.80
52799;DHT22;38667;42.872;74.622;2024-03-29T03:54:06;10.60;67.50
52799;DHT22;38667;42.872;74.622;2024-03-29T03:56:33;10.70;66.20
52799;DHT22;38667;42.872;74.622;2024-03-29T03:58:59;10.70;64.90
52799;DHT22;38667;42.872;74.622;2024-03-29T04:01:25;10.70;65.10
52799;DHT22;38667;42.872;74.622;2024-03-29T04:03:52;10.60;63.20
52799;DHT22;38667;42.872;74.622;2024-03-29T04:06:18;10.50;64.80
52799;DHT22;38667;42.872;74.622;2024-03-29T04:08:46;10.50;64.10
52799;DHT22;38667;42.872;74.622;2024-03-29T04:11:13;10.50;64.80
52799;DHT22;38667;42.872;74.622;2024-03-29T04:13:39;10.50;63.30
52799;DHT22;38667;42.872;74.622;2024-03-29T04:16:07;10.30;64.60
52799;DHT22;38667;42.872;74.622;2024-03-29T04:18:33;10.40;64.60
52799;DHT22;38667;42.872;74.622;2024-03-29T04:21:00;10.40;63.90
52799;DHT22;38667;42.872;74.622;2024-03-29T04:23:27;10.60;63.90
52799;DHT22;38667;42.872;74.622;2024-03-29T04:25:55;10.80;64.30
52799;DHT22;38667;42.872;74.622;2024-03-29T04:28:22;11.00;63.70
52799;DHT22;38667;42.872;74.622;2024-03-29T04:30:52;11.20;62.70
52799;DHT22;38667;42.872;74.622;2024-03-29T04:33:18;11.30;62.00
52799;DHT22;38667;42.872;74.622;2024-03-29T04:35:53;11.50;63.20
52799;DHT22;38667;42.872;74.622;2024-03-29T04:38:20;11.60;62.40
52799;DHT22;38667;42.872;74.622;2024-03-29T04:40:47;11.70;62.70
52799;DHT22;38667;42.872;74.622;2024-03-29T04:43:15;11.90;62.80
52799;DHT22;38667;42.872;74.622;2024-03-29T04:45:41;12.20;62.70
52799;DHT22;38667;42.872;74.622;2024-03-29T04:48:07;12.30;60.00
52799;DHT22;38667;42.872;74.622;2024-03-29T04:50:34;12.30;60.60
52799;DHT22;38667;42.872;74.622;2024-03-29T04:53:00;12.50;60.90
52799;DHT22;38667;42.872;74.622;2024-03-29T04:55:26;12.60;59.00
52799;DHT22;38667;42.872;74.622;2024-03-29T04:57:53;12.70;59.00
52799;DHT22;38667;42.872;74.622;2024-03-29T05:00:21;12.80;57.10
52799;DHT22;38667;42.872;74.622;2024-03-29T05:02:47;12.60;56.50
52799;DHT22;38667;42.872;74.622;2024-03-29T05:05:14;12.30;57.30
52799;DHT22;38667;42.872;74.622;2024-03-29T05:07:40;12.20;58.80
52799;DHT22;38667;42.872;74.622;2024-03-29T05:10:08;12.10;57.60
52799;DHT22;38667;42.872;74.622;2024-03-29T05:12:34;11.90;57.90
52799;DHT22;38667;42.872;74.622;2024-03-29T05:15:01;11.90;57.60
52799;DHT22;38667;42.872;74.622;2024-03-29T05:17:29;11.90;58.10
52799;DHT22;38667;42.872;74.622;2024-03-29T05:19:56;12.10;57.10
52799;DHT22;38667;42.872;74.622;2024-03-29T05:22:23;12.10;56.90
52799;DHT22;38667;42.872;74.622;2024-03-29T05:24:52;12.20;56.60
52799;DHT22;38667;42.872;74.622;2024-03-29T05:27:19;12.40;56.30
52799;DHT22;38667;42.872;74.622;2024-03-29T05:29:45;12.60;55.60
52799;DHT22;38667;42.872;74.622;2024-03-29T05:32:11;12.50;55.40
52799;DHT22;38667;42.872;74.622;2024-03-29T05:34:39;12.60;54.90
52799;DHT22;38667;42.872;74.622;2024-03-29T05:37:06;12.80;54.80
52799;DHT22;38667;42.872;74.622;2024-03-29T05:39:32;13.00;54.00
52799;DHT22;38667;42.872;74.622;2024-03-29T05:41:59;12.90;54.70
52799;DHT22;38667;42.872;74.622;2024-03-29T05:44:25;12.90;55.60
52799;DHT22;38667;42.872;74.622;2024-03-29T05:46:51;12.90;54.60
52799;DHT22;38667;42.872;74.622;2024-03-29T05:49:18;12.90;55.10
52799;DHT22;38667;42.872;74.622;2024-03-29T05:51:46;12.90;53.70
52799;DHT22;38667;42.872;74.622;2024-03-29T05:54:12;12.90;53.90
52799;DHT22;38667;42.872;74.622;2024-03-29T05:56:38;13.00;55.00
52799;DHT22;38667;42.872;74.622;2024-03-29T05:59:07;13.20;55.50
52799;DHT22;38667;42.872;74.622;2024-03-29T06:01:33;13.30;53.60
52799;DHT22;38667;42.872;74.622;2024-03-29T06:04:02;13.30;53.60
52799;DHT22;38667;42.872;74.622;2024-03-29T06:06:28;13.70;52.20
52799;DHT22;38667;42.872;74.622;2024-03-29T06:08:57;14.00;51.00
52799;DHT22;38667;42.872;74.622;2024-03-29T06:11:23;14.30;50.50
52799;DHT22;38667;42.872;74.622;2024-03-29T06:13:49;15.00;50.40
52799;DHT22;38667;42.872;74.622;2024-03-29T06:16:16;15.10;48.10
52799;DHT22;38667;42.872;74.622;2024-03-29T06:18:42;14.60;49.40
52799;DHT22;38667;42.872;74.622;2024-03-29T06:21:08;14.20;49.70
52799;DHT22;38667;42.872;74.622;2024-03-29T06:23:35;14.10;52.00
52799;DHT22;38667;42.872;74.622;2024-03-29T06:26:04;14.10;51.30
52799;DHT22;38667;42.872;74.622;2024-03-29T06:28:30;14.20;50.90
52799;DHT22;38667;42.872;74.622;2024-03-29T06:30:56;14.50;50.60
52799;DHT22;38667;42.872;74.622;2024-03-29T06:33:23;14.70;49.90
52799;DHT22;38667;42.872;74.622;2024-03-29T06:35:53;14.70;49.70
52799;DHT22;38667;42.872;74.622;2024-03-29T06:38:20;14.80;49.80
52799;DHT22;38667;42.872;74.622;2024-03-29T06:40:46;14.50;49.60
52799;DHT22;38667;42.872;74.622;2024-03-29T06:43:14;14.00;51.40
52799;DHT22;38667;42.872;74.622;2024-03-29T06:45:40;14.20;51.00
52799;DHT22;38667;42.872;74.622;2024-03-29T06:48:07;14.30;49.90
52799;DHT22;38667;42.872;74.622;2024-03-29T06:50:33;14.10;50.60
52799;DHT22;38667;42.872;74.622;2024-03-29T06:53:00;14.20;51.10
52799;DHT22;38667;42.872;74.622;2024-03-29T06:55:26;14.20;51.80
52799;DHT22;38667;42.872;74.622;2024-03-29T06:57:53;14.10;50.80
52799;DHT22;38667;42.872;74.622;2024-03-29T07:00:21;13.90;52.30
52799;DHT22;38667;42.872;74.622;2024-03-29T07:02:47;13.70;52.60
52799;DHT22;38667;42.872;74.622;2024-03-29T07:05:14;13.80;52.20
52799;DHT22;38667;42.872;74.622;2024-03-29T07:07:40;14.20;51.10
52799;DHT22;38667;42.872;74.622;2024-03-29T07:10:07;14.20;51.40
52799;DHT22;38667;42.872;74.622;2024-03-29T07:12:33;14.60;50.90
52799;DHT22;38667;42.872;74.622;2024-03-29T07:15:00;14.60;49.50
52799;DHT22;38667;42.872;74.622;2024-03-29T07:17:28;14.30;50.60
52799;DHT22;38667;42.872;74.622;2024-03-29T07:19:55;14.20;51.00
52799;DHT22;38667;42.872;74.622;2024-03-29T07:22:21;14.60;50.70
52799;DHT22;38667;42.872;74.622;2024-03-29T07:24:47;14.80;49.80
52799;DHT22;38667;42.872;74.622;2024-03-29T07:27:14;14.60;50.10
52799;DHT22;38667;42.872;74.622;2024-03-29T07:29:40;14.50;49.90
52799;DHT22;38667;42.872;74.622;2024-03-29T07:32:07;14.10;50.80
52799;DHT22;38667;42.872;74.622;2024-03-29T07:34:36;14.00;51.70
52799;DHT22;38667;42.872;74.622;2024-03-29T07:37:03;13.80;52.70
52799;DHT22;38667;42.872;74.622;2024-03-29T07:39:29;13.80;52.30
52799;DHT22;38667;42.872;74.622;2024-03-29T07:41:56;13.70;52.80
52799;DHT22;38667;42.872;74.622;2024-03-29T07:44:22;13.80;52.60
52799;DHT22;38667;42.872;74.622;2024-03-29T07:46:48;13.60;52.50
52799;DHT22;38667;42.872;74.622;2024-03-29T07:49:15;13.50;52.80
52799;DHT22;38667;42.872;74.622;2024-03-29T07:51:43;13.40;53.40
52799;DHT22;38667;42.872;74.622;2024-03-29T07:54:10;13.40;53.10
52799;DHT22;38667;42.872;74.622;2024-03-29T07:56:36;13.30;53.90
52799;DHT22;38667;42.872;74.622;2024-03-29T07:59:02;13.40;53.50
52799;DHT22;38667;42.872;74.622;2024-03-29T08:01:29;13.50;55.20
52799;DHT22;38667;42.872;74.622;2024-03-29T08:03:55;13.30;54.10
52799;DHT22;38667;42.872;74.622;2024-03-29T08:06:22;13.10;54.80
52799;DHT22;38667;42.872;74.622;2024-03-29T08:08:50;12.90;54.80
52799;DHT22;38667;42.872;74.622;2024-03-29T08:11:17;12.70;55.80
52799;DHT22;38667;42.872;74.622;2024-03-29T08:13:43;12.70;55.90
52799;DHT22;38667;42.872;74.622;2024-03-29T08:16:09;12.70;56.50
52799;DHT22;38667;42.872;74.622;2024-03-29T08:18:36;12.70;55.30
52799;DHT22;38667;42.872;74.622;2024-03-29T08:21:03;12.70;55.80
52799;DHT22;38667;42.872;74.622;2024-03-29T08:23:30;12.80;55.80
52799;DHT22;38667;42.872;74.622;2024-03-29T08:25:58;12.90;56.50
52799;DHT22;38667;42.872;74.622;2024-03-29T08:28:25;12.90;55.70
52799;DHT22;38667;42.872;74.622;2024-03-29T08:31:01;12.80;56.90
52799;DHT22;38667;42.872;74.622;2024-03-29T08:33:28;12.70;56.30
52799;DHT22;38667;42.872;74.622;2024-03-29T08:35:54;12.80;56.10
52799;DHT22;38667;42.872;74.622;2024-03-29T08:38:23;12.90;57.00
52799;DHT22;38667;42.872;74.622;2024-03-29T08:40:50;12.80;56.20
52799;DHT22;38667;42.872;74.622;2024-03-29T08:43:18;12.70;56.40
52799;DHT22;38667;42.872;74.622;2024-03-29T08:45:45;12.60;56.90
52799;DHT22;38667;42.872;74.622;2024-03-29T08:48:12;12.60;57.60
52799;DHT22;38667;42.872;74.622;2024-03-29T08:50:38;12.50;57.50
52799;DHT22;38667;42.872;74.622;2024-03-29T08:53:05;12.40;58.00
52799;DHT22;38667;42.872;74.622;2024-03-29T08:55:32;12.40;58.00
52799;DHT22;38667;42.872;74.622;2024-03-29T08:57:59;12.40;57.10
52799;DHT22;38667;42.872;74.622;2024-03-29T09:00:29;12.40;57.40
52799;DHT22;38667;42.872;74.622;2024-03-29T09:02:55;12.40;57.60
52799;DHT22;38667;42.872;74.622;2024-03-29T09:05:22;12.40;57.70
52799;DHT22;38667;42.872;74.622;2024-03-29T09:07:48;12.40;57.60
52799;DHT22;38667;42.872;74.622;2024-03-29T09:10:15;12.50;57.70
52799;DHT22;38667;42.872;74.622;2024-03-29T09:12:42;12.40;57.60
52799;DHT22;38667;42.872;74.622;2024-03-29T09:15:09;12.40;58.00
52799;DHT22;38667;42.872;74.622;2024-03-29T09:17:37;12.40;58.30
52799;DHT22;38667;42.872;74.622;2024-03-29T09:20:04;12.40;58.70
52799;DHT22;38667;42.872;74.622;2024-03-29T09:22:30;12.40;58.70
52799;DHT22;38667;42.872;74.622;2024-03-29T09:24:56;12.30;58.80
52799;DHT22;38667;42.872;74.622;2024-03-29T09:27:23;12.30;58.70
52799;DHT22;38667;42.872;74.622;2024-03-29T09:29:49;12.30;58.60
52799;DHT22;38667;42.872;74.622;2024-03-29T09:32:16;12.20;59.00
52799;DHT22;38667;42.872;74.622;2024-03-29T09:34:44;12.30;58.60
52799;DHT22;38667;42.872;74.622;2024-03-29T09:37:10;12.30;57.30
52799;DHT22;38667;42.872;74.622;2024-03-29T09:39:37;12.20;57.10
52799;DHT22;38667;42.872;74.622;2024-03-29T09:42:04;12.10;57.50
52799;DHT22;38667;42.872;74.622;2024-03-29T09:44:33;12.00;58.10
52799;DHT22;38667;42.872;74.622;2024-03-29T09:47:02;12.00;58.90
52799;DHT22;38667;42.872;74.622;2024-03-29T09:49:29;12.00;59.40
52799;DHT22;38667;42.872;74.622;2024-03-29T09:51:58;12.00;59.90
52799;DHT22;38667;42.872;74.622;2024-03-29T09:54:27;12.00;60.40
52799;DHT22;38667;42.872;74.622;2024-03-29T09:56:54;11.90;60.10
52799;DHT22;38667;42.872;74.622;2024-03-29T09:59:21;11.90;60.60
52799;DHT22;38667;42.872;74.622;2024-03-29T10:01:48;11.70;60.70
52799;DHT22;38667;42.872;74.622;2024-03-29T10:04:16;11.60;61.10
52799;DHT22;38667;42.872;74.622;2024-03-29T10:06:45;11.50;61.70
52799;DHT22;38667;42.872;74.622;2024-03-29T10:09:14;11.60;61.70
52799;DHT22;38667;42.872;74.622;2024-03-29T10:11:42;11.60;61.60
52799;DHT22;38667;42.872;74.622;2024-03-29T10:14:08;11.70;62.20
52799;DHT22;38667;42.872;74.622;2024-03-29T10:16:35;11.70;61.70
52799;DHT22;38667;42.872;74.622;2024-03-29T10:19:01;11.60;60.40
52799;DHT22;38667;42.872;74.622;2024-03-29T10:21:28;11.50;60.50
52799;DHT22;38667;42.872;74.622;2024-03-29T10:23:54;11.50;60.60
52799;DHT22;38667;42.872;74.622;2024-03-29T10:26:22;11.40;60.80
52799;DHT22;38667;42.872;74.622;2024-03-29T10:28:49;11.40;61.50
52799;DHT22;38667;42.872;74.622;2024-03-29T10:31:15;11.40;61.50
52799;DHT22;38667;42.872;74.622;2024-03-29T10:33:43;11.50;61.30
52799;DHT22;38667;42.872;74.622;2024-03-29T10:36:10;11.40;61.10
52799;DHT22;38667;42.872;74.622;2024-03-29T10:38:36;11.40;61.30
52799;DHT22;38667;42.872;74.622;2024-03-29T10:41:03;11.30;61.60
52799;DHT22;38667;42.872;74.622;2024-03-29T10:43:32;11.30;62.60
52799;DHT22;38667;42.872;74.622;2024-03-29T10:46:00;11.30;61.60
52799;DHT22;38667;42.872;74.622;2024-03-29T10:48:27;11.30;61.80
52799;DHT22;38667;42.872;74.622;2024-03-29T10:50:54;11.40;61.90
52799;DHT22;38667;42.872;74.622;2024-03-29T10:53:23;11.40;61.50
52799;DHT22;38667;42.872;74.622;2024-03-29T10:55:52;11.40;61.60
52799;DHT22;38667;42.872;74.622;2024-03-29T10:58:20;11.40;61.80
52799;DHT22;38667;42.872;74.622;2024-03-29T11:00:52;11.40;61.60
52799;DHT22;38667;42.872;74.622;2024-03-29T11:03:20;11.40;61.20
52799;DHT22;38667;42.872;74.622;2024-03-29T11:05:49;11.40;61.20
52799;DHT22;38667;42.872;74.622;2024-03-29T11:08:21;11.40;60.80
52799;DHT22;38667;42.872;74.622;2024-03-29T11:10:49;11.40;60.30
52799;DHT22;38667;42.872;74.622;2024-03-29T11:13:23;11.40;60.40
52799;DHT22;38667;42.872;74.622;2024-03-29T11:15:52;11.40;60.10
52799;DHT22;38667;42.872;74.622;2024-03-29T11:18:19;11.40;60.10
52799;DHT22;38667;42.872;74.622;2024-03-29T11:20:46;11.40;60.50
52799;DHT22;38667;42.872;74.622;2024-03-29T11:23:14;11.50;60.00
52799;DHT22;38667;42.872;74.622;2024-03-29T11:25:41;11.50;59.90
52799;DHT22;38667;42.872;74.622;2024-03-29T11:28:08;11.60;59.60
52799;DHT22;38667;42.872;74.622;2024-03-29T11:30:41;11.60;59.10
52799;DHT22;38667;42.872;74.622;2024-03-29T11:35:51;11.60;59.10
52799;DHT22;38667;42.872;74.622;2024-03-29T11:38:17;11.60;58.90
52799;DHT22;38667;42.872;74.622;2024-03-29T11:40:54;11.60;59.20
52799;DHT22;38667;42.872;74.622;2024-03-29T11:43:20;11.70;59.80
52799;DHT22;38667;42.872;74.622;2024-03-29T11:45:50;11.70;59.50
52799;DHT22;38667;42.872;74.622;2024-03-29T11:48:20;11.70;59.40
52799;DHT22;38667;42.872;74.622;2024-03-29T11:50:48;11.80;59.80
52799;DHT22;38667;42.872;74.622;2024-03-29T11:53:15;11.80;59.30
52799;DHT22;38667;42.872;74.622;2024-03-29T11:55:41;11.80;59.20
52799;DHT22;38667;42.872;74.622;2024-03-29T11:58:08;11.80;59.00
52799;DHT22;38667;42.872;74.622;2024-03-29T12:00:34;11.80;59.20
52799;DHT22;38667;42.872;74.622;2024-03-29T12:03:01;11.80;59.50
52799;DHT22;38667;42.872;74.622;2024-03-29T12:05:30;11.80;58.60
52799;DHT22;38667;42.872;74.622;2024-03-29T12:07:57;11.90;58.50
52799;DHT22;38667;42.872;74.622;2024-03-29T12:10:27;11.90;58.00
52799;DHT22;38667;42.872;74.622;2024-03-29T12:12:56;11.90;58.00
52799;DHT22;38667;42.872;74.622;2024-03-29T12:15:24;11.90;58.10
52799;DHT22;38667;42.872;74.622;2024-03-29T12:17:54;11.90;58.50
52799;DHT22;38667;42.872;74.622;2024-03-29T12:20:21;11.90;57.90
52799;DHT22;38667;42.872;74.622;2024-03-29T12:22:49;12.00;58.30
52799;DHT22;38667;42.872;74.622;2024-03-29T12:25:15;12.00;58.50
52799;DHT22;38667;42.872;74.622;2024-03-29T12:27:43;12.00;58.20
52799;DHT22;38667;42.872;74.622;2024-03-29T12:30:10;12.10;58.20
52799;DHT22;38667;42.872;74.622;2024-03-29T12:32:37;12.10;58.20
52799;DHT22;38667;42.872;74.622;2024-03-29T12:35:09;12.10;58.40
52799;DHT22;38667;42.872;74.622;2024-03-29T12:37:36;12.10;59.00
52799;DHT22;38667;42.872;74.622;2024-03-29T12:40:07;12.10;59.20
52799;DHT22;38667;42.872;74.622;2024-03-29T12:42:33;12.00;58.80
52799;DHT22;38667;42.872;74.622;2024-03-29T12:45:00;11.90;59.30
52799;DHT22;38667;42.872;74.622;2024-03-29T12:47:26;11.90;59.50
52799;DHT22;38667;42.872;74.622;2024-03-29T12:49:53;11.90;60.20
52799;DHT22;38667;42.872;74.622;2024-03-29T12:52:19;11.90;60.10
52799;DHT22;38667;42.872;74.622;2024-03-29T12:54:45;12.00;60.40
52799;DHT22;38667;42.872;74.622;2024-03-29T12:57:13;12.00;60.50
52799;DHT22;38667;42.872;74.622;2024-03-29T12:59:40;11.90;60.70
52799;DHT22;38667;42.872;74.622;2024-03-29T13:02:07;12.00;61.30
52799;DHT22;38667;42.872;74.622;2024-03-29T13:04:33;11.90;60.90
52799;DHT22;38667;42.872;74.622;2024-03-29T13:07:00;11.90;60.70
52799;DHT22;38667;42.872;74.622;2024-03-29T13:09:26;11.80;61.20
52799;DHT22;38667;42.872;74.622;2024-03-29T13:11:52;11.80;61.90
52799;DHT22;38667;42.872;74.622;2024-03-29T13:14:20;11.80;62.50
52799;DHT22;38667;42.872;74.622;2024-03-29T13:16:47;11.80;62.00
52799;DHT22;38667;42.872;74.622;2024-03-29T13:19:13;11.80;62.30
52799;DHT22;38667;42.872;74.622;2024-03-29T13:21:39;11.80;62.40
52799;DHT22;38667;42.872;74.622;2024-03-29T13:24:06;11.80;62.50
52799;DHT22;38667;42.872;74.622;2024-03-29T13:26:32;11.70;62.60
52799;DHT22;38667;42.872;74.622;2024-03-29T13:28:59;11.70;63.30
52799;DHT22;38667;42.872;74.622;2024-03-29T13:31:27;11.70;63.90
52799;DHT22;38667;42.872;74.622;2024-03-29T13:33:53;11.60;63.70
52799;DHT22;38667;42.872;74.622;2024-03-29T13:36:19;11.60;63.90
52799;DHT22;38667;42.872;74.622;2024-03-29T13:38:46;11.60;64.40
52799;DHT22;38667;42.872;74.622;2024-03-29T13:41:12;11.60;64.60
52799;DHT22;38667;42.872;74.622;2024-03-29T13:43:39;11.60;64.20
52799;DHT22;38667;42.872;74.622;2024-03-29T13:46:05;11.60;64.10
52799;DHT22;38667;42.872;74.622;2024-03-29T13:48:34;11.70;64.70
52799;DHT22;38667;42.872;74.622;2024-03-29T13:51:00;11.60;65.20
52799;DHT22;38667;42.872;74.622;2024-03-29T13:53:26;11.70;64.80
52799;DHT22;38667;42.872;74.622;2024-03-29T13:55:53;11.70;64.90
52799;DHT22;38667;42.872;74.622;2024-03-29T13:58:21;11.60;65.20
52799;DHT22;38667;42.872;74.622;2024-03-29T14:00:48;11.60;65.30
52799;DHT22;38667;42.872;74.622;2024-03-29T14:03:14;11.60;65.20
52799;DHT22;38667;42.872;74.622;2024-03-29T14:05:42;11.60;65.70
52799;DHT22;38667;42.872;74.622;2024-03-29T14:08:10;11.50;65.60
52799;DHT22;38667;42.872;74.622;2024-03-29T14:10:36;11.50;66.70
52799;DHT22;38667;42.872;74.622;2024-03-29T14:13:02;11.50;66.80
52799;DHT22;38667;42.872;74.622;2024-03-29T14:15:29;11.50;67.20
52799;DHT22;38667;42.872;74.622;2024-03-29T14:17:55;11.50;66.90
52799;DHT22;38667;42.872;74.622;2024-03-29T14:20:22;11.50;67.50
52799;DHT22;38667;42.872;74.622;2024-03-29T14:22:50;11.50;67.30
52799;DHT22;38667;42.872;74.622;2024-03-29T14:25:16;11.50;67.60
52799;DHT22;38667;42.872;74.622;2024-03-29T14:27:42;11.40;67.80
52799;DHT22;38667;42.872;74.622;2024-03-29T14:30:10;11.40;68.50
52799;DHT22;38667;42.872;74.622;2024-03-29T14:32:36;11.40;69.40
52799;DHT22;38667;42.872;74.622;2024-03-29T14:35:03;11.40;69.90
52799;DHT22;38667;42.872;74.622;2024-03-29T14:37:30;11.40;70.20
52799;DHT22;38667;42.872;74.622;2024-03-29T14:39:58;11.40;72.40
52799;DHT22;38667;42.872;74.622;2024-03-29T14:42:25;11.30;74.80
52799;DHT22;38667;42.872;74.622;2024-03-29T14:44:51;11.20;76.20
52799;DHT22;38667;42.872;74.622;2024-03-29T14:47:17;11.10;77.80
52799;DHT22;38667;42.872;74.622;2024-03-29T14:49:44;11.00;77.10
52799;DHT22;38667;42.872;74.622;2024-03-29T14:52:10;10.90;77.70
52799;DHT22;38667;42.872;74.622;2024-03-29T14:54:37;10.90;79.30
52799;DHT22;38667;42.872;74.622;2024-03-29T14:57:05;10.90;77.80
52799;DHT22;38667;42.872;74.622;2024-03-29T14:59:32;10.90;76.70
52799;DHT22;38667;42.872;74.622;2024-03-29T15:01:58;10.90;76.60
52799;DHT22;38667;42.872;74.622;2024-03-29T15:04:25;10.90;77.00
52799;DHT22;38667;42.872;74.622;2024-03-29T15:06:51;10.90;77.50
52799;DHT22;38667;42.872;74.622;2024-03-29T15:09:17;10.90;78.20
52799;DHT22;38667;42.872;74.622;2024-03-29T15:11:44;10.80;80.70
52799;DHT22;38667;42.872;74.622;2024-03-29T15:14:12;10.70;83.60
52799;DHT22;38667;42.872;74.622;2024-03-29T15:16:38;10.60;86.10
52799;DHT22;38667;42.872;74.622;2024-03-29T15:19:04;10.50;87.70
52799;DHT22;38667;42.872;74.622;2024-03-29T15:21:31;10.40;90.40